createdAt,value
2023-04-11T00:01:32.414Z,8.15
2023-04-11T00:04:01.152Z,9.98
2023-04-11T00:06:29.185Z,11.02
2023-04-11T00:08:57.306Z,9.35
2023-04-11T00:11:26.134Z,9.27
2023-04-11T00:13:57.674Z,9.35
2023-04-11T00:16:27.345Z,9.55
2023-04-11T00:18:57.306Z,9.05
2023-04-11T00:21:25.316Z,10.88
2023-04-11T00:23:53.927Z,9.57
2023-04-11T00:26:22.388Z,9.25
2023-04-11T00:28:50.336Z,8.98
2023-04-11T00:31:18.235Z,8.82
2023-04-11T00:33:47.563Z,8.80
2023-04-11T00:36:15.483Z,8.80
2023-04-11T00:38:44.788Z,10.23
2023-04-11T00:41:12.689Z,10.05
2023-04-11T00:43:40.612Z,10.80
2023-04-11T00:46:09.502Z,10.18
2023-04-11T00:48:37.798Z,8.43
2023-04-11T00:51:07.743Z,9.18
2023-04-11T00:53:35.949Z,10.98
2023-04-11T00:56:03.907Z,8.80
2023-04-11T00:58:33.931Z,8.13
2023-04-11T01:01:02.200Z,7.50
2023-04-11T01:03:30.473Z,7.97
2023-04-11T01:05:58.601Z,8.13
2023-04-11T01:08:28.079Z,8.35
2023-04-11T01:10:56.038Z,9.45
2023-04-11T01:13:23.988Z,8.68
2023-04-11T01:15:51.896Z,7.43
2023-04-11T01:18:19.883Z,6.13
2023-04-11T01:20:47.995Z,7.75
2023-04-11T01:23:16.230Z,8.20
2023-04-11T01:25:45.519Z,8.93
2023-04-11T01:28:14.277Z,8.00
2023-04-11T01:30:42.273Z,8.73
2023-04-11T01:33:10.914Z,9.85
2023-04-11T01:35:39.198Z,12.18
2023-04-11T01:38:07.462Z,6.90
2023-04-11T01:40:35.626Z,9.90
2023-04-11T01:43:07.223Z,7.95
2023-04-11T01:45:35.361Z,8.90
2023-04-11T01:48:07.386Z,8.27
2023-04-11T01:50:35.806Z,8.90
2023-04-11T01:53:03.720Z,7.80
2023-04-11T01:55:31.797Z,7.78
2023-04-11T01:57:59.686Z,8.10
2023-04-11T02:00:28.911Z,6.95
2023-04-11T02:02:56.970Z,7.68
2023-04-11T02:05:25.062Z,8.65
2023-04-11T02:07:52.949Z,8.25
2023-04-11T02:10:20.957Z,6.53
2023-04-11T02:12:48.848Z,5.82
2023-04-11T02:15:16.797Z,7.70
2023-04-11T02:17:46.083Z,7.72
2023-04-11T02:20:14.628Z,6.13
2023-04-11T02:22:42.586Z,7.30
2023-04-11T02:25:10.860Z,8.15
2023-04-11T02:27:38.720Z,6.60
2023-04-11T02:30:07.861Z,7.78
2023-04-11T02:32:36.115Z,7.85
2023-04-11T02:35:07.769Z,5.82
2023-04-11T02:37:35.929Z,5.55
2023-04-11T02:40:05.377Z,8.93
2023-04-11T02:42:33.254Z,7.63
2023-04-11T02:45:01.334Z,7.72
2023-04-11T02:47:30.162Z,5.90
2023-04-11T02:50:02.788Z,8.98
2023-04-11T02:52:39.437Z,7.18
2023-04-11T02:55:08.113Z,7.45
2023-04-11T02:57:36.141Z,7.10
2023-04-11T03:00:07.028Z,9.43
2023-04-11T03:02:44.360Z,8.88
2023-04-11T03:05:14.410Z,8.27
2023-04-11T03:07:47.037Z,9.43
2023-04-11T03:10:14.874Z,9.65
2023-04-11T03:12:44.077Z,11.57
2023-04-11T03:15:15.493Z,10.65
2023-04-11T03:17:43.596Z,12.48
2023-04-11T03:20:19.959Z,8.60
2023-04-11T03:22:52.315Z,9.75
2023-04-11T03:25:21.449Z,6.20
2023-04-11T03:27:51.218Z,11.65
2023-04-11T03:30:19.144Z,9.57
2023-04-11T03:32:48.901Z,15.63
2023-04-11T03:35:18.762Z,9.82
2023-04-11T03:37:48.402Z,9.50
2023-04-11T03:40:18.897Z,12.65
2023-04-11T03:42:52.541Z,10.57
2023-04-11T03:47:55.346Z,10.32
2023-04-11T03:50:27.695Z,8.23
2023-04-11T03:53:00.121Z,9.27
2023-04-11T03:55:30.700Z,7.97
2023-04-11T03:58:00.505Z,9.18
2023-04-11T04:00:29.781Z,11.27
2023-04-11T04:03:05.250Z,9.55
2023-04-11T04:05:33.495Z,7.55
2023-04-11T04:08:01.560Z,12.65
2023-04-11T04:13:15.737Z,9.02
2023-04-11T04:15:51.429Z,10.80
2023-04-11T04:20:51.998Z,6.22
2023-04-11T04:23:21.475Z,8.77
2023-04-11T04:26:16.016Z,9.38
2023-04-11T04:28:48.605Z,10.80
2023-04-11T04:31:25.811Z,11.15
2023-04-11T04:34:03.904Z,13.05
2023-04-11T04:36:32.065Z,11.45
2023-04-11T04:39:02.123Z,10.30
2023-04-11T04:41:37.144Z,12.27
2023-04-11T04:44:05.517Z,12.98
2023-04-11T04:46:38.873Z,11.05
2023-04-11T04:49:08.288Z,13.23
2023-04-11T04:51:37.731Z,13.85
2023-04-11T04:54:06.643Z,11.18
2023-04-11T04:56:34.701Z,10.10
2023-04-11T04:59:04.082Z,12.45
2023-04-11T05:01:33.611Z,11.38
2023-04-11T05:04:03.803Z,10.05
2023-04-11T05:06:50.542Z,13.15
2023-04-11T05:09:19.235Z,13.45
2023-04-11T05:11:48.244Z,13.27
2023-04-11T05:14:17.608Z,9.50
2023-04-11T05:16:46.267Z,12.32
2023-04-11T05:19:14.269Z,15.80
2023-04-11T05:21:46.954Z,12.48
2023-04-11T05:24:15.010Z,12.45
2023-04-11T05:26:42.970Z,11.43
2023-04-11T05:29:15.423Z,10.80
2023-04-11T05:31:45.416Z,11.23
2023-04-11T05:34:13.387Z,11.95
2023-04-11T05:36:42.074Z,12.30
2023-04-11T05:39:10.058Z,10.73
2023-04-11T05:41:37.912Z,11.18
2023-04-11T05:44:06.095Z,12.27
2023-04-11T05:46:35.833Z,10.00
2023-04-11T05:49:05.712Z,12.35
2023-04-11T05:51:33.850Z,11.68
2023-04-11T05:54:01.858Z,10.75
2023-04-11T05:56:29.803Z,10.85
2023-04-11T05:58:57.683Z,12.75
2023-04-11T06:01:27.140Z,13.02
2023-04-11T06:03:58.276Z,10.77
2023-04-11T06:06:27.831Z,11.13
2023-04-11T06:08:55.783Z,10.05
2023-04-11T06:11:25.759Z,9.90
2023-04-11T06:13:53.751Z,12.52
2023-04-11T06:16:21.713Z,13.45
2023-04-11T06:18:49.637Z,11.75
2023-04-11T06:21:17.532Z,9.55
2023-04-11T06:23:46.860Z,10.77
2023-04-11T06:26:14.783Z,11.52
2023-04-11T06:28:42.746Z,9.32
2023-04-11T06:31:11.205Z,13.25
2023-04-11T06:33:39.133Z,7.93
2023-04-11T06:36:07.631Z,10.10
2023-04-11T06:38:36.719Z,11.18
2023-04-11T06:41:06.414Z,8.85
2023-04-11T06:43:34.308Z,9.60
2023-04-11T06:46:02.222Z,8.98
2023-04-11T06:48:30.156Z,9.73
2023-04-11T06:50:58.016Z,5.45
2023-04-11T06:53:26.258Z,6.60
2023-04-11T06:55:54.235Z,7.63
2023-04-11T06:58:23.484Z,7.20
2023-04-11T07:00:51.534Z,7.25
2023-04-11T07:03:19.950Z,9.77
2023-04-11T07:05:48.405Z,4.25
2023-04-11T07:08:16.448Z,6.15
2023-04-11T07:10:44.511Z,4.43
2023-04-11T07:13:12.502Z,6.75
2023-04-11T07:15:41.761Z,3.30
2023-04-11T07:18:09.621Z,2.35
2023-04-11T07:20:37.520Z,2.45
2023-04-11T07:23:05.450Z,1.77
2023-04-11T07:25:33.595Z,1.63
2023-04-11T07:28:01.611Z,2.25
2023-04-11T07:30:29.866Z,5.15
2023-04-11T07:32:59.157Z,2.05
2023-04-11T07:35:28.522Z,4.45
2023-04-11T07:37:57.641Z,3.38
2023-04-11T07:40:25.953Z,5.47
2023-04-11T07:42:53.835Z,4.25
2023-04-11T07:45:21.935Z,3.13
2023-04-11T07:47:49.944Z,4.07
2023-04-11T07:50:19.349Z,1.83
2023-04-11T07:55:56.405Z,2.17
2023-04-11T07:58:24.455Z,1.92
2023-04-11T08:00:53.913Z,1.73
2023-04-11T08:03:23.595Z,4.18
2023-04-11T08:05:53.322Z,2.78
2023-04-11T08:08:21.577Z,2.22
2023-04-11T08:10:51.919Z,3.25
2023-04-11T08:13:20.204Z,3.13
2023-04-11T08:15:48.162Z,3.33
2023-04-11T08:18:16.445Z,2.70
2023-04-11T08:20:44.566Z,5.07
2023-04-11T08:23:13.867Z,2.75
2023-04-11T08:25:41.961Z,3.75
2023-04-11T08:28:11.998Z,6.07
2023-04-11T08:30:39.922Z,7.25
2023-04-11T08:52:23.368Z,5.38
2023-04-11T08:54:55.066Z,3.95
2023-04-11T08:57:26.883Z,2.13
2023-04-11T09:00:02.605Z,3.15
2023-04-11T09:02:30.911Z,3.38
2023-04-11T09:04:59.084Z,2.13
2023-04-11T09:07:29.093Z,2.83
2023-04-11T09:09:57.043Z,3.60
2023-04-11T09:12:30.768Z,4.20
2023-04-11T09:14:58.775Z,6.47
2023-04-11T09:17:26.743Z,5.05
2023-04-11T09:19:55.147Z,5.75
2023-04-11T09:22:37.801Z,6.65
2023-04-11T09:25:06.593Z,3.28
2023-04-11T09:27:34.482Z,7.20
2023-04-11T09:30:03.701Z,6.70
2023-04-11T09:32:33.776Z,4.95
2023-04-11T09:35:12.729Z,5.25
2023-04-11T09:37:49.237Z,6.80
2023-04-11T09:40:19.779Z,5.57
2023-04-11T09:42:49.052Z,4.97
2023-04-11T09:45:18.668Z,4.93
2023-04-11T09:47:46.842Z,4.57
2023-04-11T09:50:15.006Z,5.88
2023-04-11T09:52:44.066Z,5.90
2023-04-11T09:55:14.827Z,7.13
2023-04-11T09:57:45.779Z,4.95
2023-04-11T10:00:18.515Z,2.20
2023-04-11T10:02:48.992Z,8.27
2023-04-11T10:05:18.324Z,5.30
2023-04-11T10:07:47.593Z,3.70
2023-04-11T10:10:24.214Z,3.97
2023-04-11T10:12:52.320Z,3.88
2023-04-11T10:15:21.749Z,6.32
2023-04-11T10:18:09.452Z,4.50
2023-04-11T10:20:46.125Z,4.00
2023-04-11T10:23:16.097Z,9.10
2023-04-11T10:25:56.383Z,7.70
2023-04-11T10:28:38.529Z,9.80
2023-04-11T10:31:09.115Z,7.82
2023-04-11T10:33:37.956Z,8.15
2023-04-11T10:36:10.214Z,6.57
2023-04-11T10:38:51.757Z,4.22
2023-04-11T10:41:29.330Z,5.28
2023-04-11T10:44:18.453Z,8.68
2023-04-11T10:46:51.776Z,4.82
2023-04-11T10:49:33.743Z,4.75
2023-04-11T10:52:17.760Z,6.47
2023-04-11T10:54:47.112Z,6.45
2023-04-11T10:57:16.388Z,5.95
2023-04-11T11:00:15.522Z,5.10
2023-04-11T11:02:44.761Z,7.65
2023-04-11T11:05:19.807Z,4.70
2023-04-11T11:07:49.358Z,5.50
2023-04-11T11:10:43.054Z,4.20
2023-04-11T11:13:12.399Z,8.70
2023-04-11T11:15:41.304Z,2.40
2023-04-11T11:18:10.616Z,2.85
2023-04-11T11:20:38.980Z,2.25
2023-04-11T11:23:08.289Z,2.38
2023-04-11T11:25:36.634Z,2.30
2023-04-11T11:28:06.234Z,2.08
2023-04-11T11:30:36.650Z,3.03
2023-04-11T11:33:18.333Z,2.05
2023-04-11T11:35:54.107Z,0.75
2023-04-11T11:38:23.652Z,1.75
2023-04-11T11:40:52.087Z,2.05
2023-04-11T11:43:20.317Z,1.77
2023-04-11T11:46:08.752Z,0.60
2023-04-11T11:48:37.272Z,2.28
2023-04-11T11:51:06.317Z,0.70
2023-04-11T11:53:34.400Z,2.22
2023-04-11T11:56:13.240Z,1.15
2023-04-11T11:58:45.983Z,1.60
2023-04-11T12:01:17.478Z,1.23
2023-04-11T12:03:51.649Z,1.23
2023-04-11T12:06:20.201Z,1.05
2023-04-11T12:08:54.645Z,2.13
2023-04-11T12:11:22.738Z,2.65
2023-04-11T12:13:53.489Z,1.58
2023-04-11T12:16:24.731Z,1.85
2023-04-11T12:18:52.915Z,1.00
2023-04-11T12:21:20.881Z,0.93
2023-04-11T12:23:48.904Z,1.85
2023-04-11T12:26:17.684Z,2.20
2023-04-11T12:28:45.629Z,4.43
2023-04-11T12:31:13.805Z,1.40
2023-04-11T12:33:43.342Z,1.20
2023-04-11T12:36:12.295Z,1.75
2023-04-11T12:38:41.131Z,1.88
2023-04-11T12:41:26.314Z,0.60
2023-04-11T12:43:57.320Z,3.30
2023-04-11T12:46:26.390Z,1.85
2023-04-11T12:48:55.875Z,1.05
2023-04-11T12:51:23.927Z,1.85
2023-04-11T12:53:52.852Z,1.33
2023-04-11T12:56:20.834Z,0.32
2023-04-11T12:58:48.788Z,1.80
2023-04-11T13:01:17.348Z,1.40
2023-04-11T13:03:45.444Z,1.02
2023-04-11T13:06:14.858Z,1.75
2023-04-11T13:08:42.812Z,0.90
2023-04-11T13:11:10.954Z,0.60
2023-04-11T13:13:38.924Z,1.02
2023-04-11T13:16:08.547Z,1.15
2023-04-11T13:18:36.466Z,1.90
2023-04-11T13:21:04.477Z,1.73
2023-04-11T13:23:33.724Z,0.55
2023-04-11T13:26:01.891Z,1.65
2023-04-11T13:28:29.825Z,1.58
2023-04-11T13:30:59.120Z,1.27
2023-04-11T13:33:27.423Z,3.15
2023-04-11T13:35:55.386Z,1.73
2023-04-11T13:38:23.375Z,2.30
2023-04-11T13:40:52.821Z,2.78
2023-04-11T13:43:20.795Z,3.25
2023-04-11T13:45:48.744Z,1.80
2023-04-11T13:48:17.067Z,2.78
2023-04-11T13:50:45.147Z,1.33
2023-04-11T13:53:13.088Z,1.65
2023-04-11T13:55:41.416Z,0.70
2023-04-11T13:58:10.661Z,0.70
2023-04-11T14:00:38.609Z,3.25
2023-04-11T14:03:06.674Z,0.75
2023-04-11T14:05:35.747Z,0.85
2023-04-11T14:08:04.232Z,0.70
2023-04-11T14:10:32.864Z,0.70
2023-04-11T14:13:02.030Z,1.20
2023-04-11T14:15:31.815Z,1.15
2023-04-11T14:18:00.802Z,1.77
2023-04-11T14:20:30.070Z,1.73
2023-04-11T14:22:58.080Z,4.57
2023-04-11T14:25:26.044Z,2.70
2023-04-11T14:27:53.981Z,1.75
2023-04-11T14:30:21.995Z,1.02
2023-04-11T14:32:51.345Z,2.38
2023-04-11T14:35:19.270Z,1.35
2023-04-11T14:37:47.530Z,1.13
2023-04-11T14:40:15.433Z,2.63
2023-04-11T14:42:43.375Z,1.00
2023-04-11T14:45:11.437Z,0.93
2023-04-11T14:47:40.245Z,0.90
2023-04-11T14:50:10.783Z,4.32
2023-04-11T14:52:39.350Z,1.58
2023-04-11T14:55:08.735Z,1.60
2023-04-11T14:57:45.133Z,2.40
2023-04-11T15:00:19.902Z,0.95
2023-04-11T15:02:49.259Z,2.78
2023-04-11T15:05:19.870Z,3.30
2023-04-11T15:07:49.403Z,3.13
2023-04-11T15:10:18.810Z,3.85
2023-04-11T15:12:46.795Z,1.90
2023-04-11T15:15:15.871Z,1.58
2023-04-11T15:17:46.364Z,1.58
2023-04-11T15:20:15.424Z,0.95
2023-04-11T15:22:45.642Z,1.77
2023-04-11T15:25:14.662Z,1.65
2023-04-11T15:27:43.502Z,1.10
2023-04-11T15:30:12.779Z,0.88
2023-04-11T15:32:43.886Z,3.33
2023-04-11T15:35:12.347Z,0.47
2023-04-11T15:37:41.104Z,0.65
2023-04-11T15:40:12.245Z,1.67
2023-04-11T15:42:40.371Z,1.90
2023-04-11T15:45:09.068Z,2.88
2023-04-11T15:47:37.049Z,2.65
2023-04-11T15:50:05.549Z,1.23
2023-04-11T15:52:33.498Z,2.20
2023-04-11T15:55:01.371Z,2.83
2023-04-11T15:57:30.731Z,0.65
2023-04-11T15:59:59.531Z,1.77
2023-04-11T16:02:28.279Z,1.13
2023-04-11T16:04:56.730Z,8.88
2023-04-11T16:07:24.874Z,1.58
2023-04-11T16:09:52.784Z,1.13
2023-04-11T16:12:20.836Z,2.42
2023-04-11T16:14:50.250Z,2.03
2023-04-11T16:17:19.113Z,2.95
2023-04-11T16:19:47.044Z,2.40
2023-04-11T16:22:14.959Z,3.22
2023-04-11T16:24:42.921Z,3.45
2023-04-11T16:27:10.925Z,2.40
2023-04-11T16:29:38.838Z,3.30
2023-04-11T16:32:08.582Z,2.15
2023-04-11T16:34:36.639Z,2.80
2023-04-11T16:37:04.617Z,3.30
2023-04-11T16:39:32.532Z,5.90
2023-04-11T16:42:00.554Z,3.55
2023-04-11T16:44:28.570Z,2.65
2023-04-11T16:46:56.491Z,4.88
2023-04-11T16:49:25.793Z,4.43
2023-04-11T16:51:53.670Z,3.88
2023-04-11T16:54:21.586Z,3.55
2023-04-11T16:56:50.072Z,5.35
2023-04-11T16:59:18.894Z,3.17
2023-04-11T17:01:46.943Z,4.63
2023-04-11T17:04:14.991Z,1.35
2023-04-11T17:06:44.287Z,1.42
2023-04-11T17:09:12.224Z,3.03
2023-04-11T17:11:40.396Z,5.53
2023-04-11T17:14:08.317Z,2.45
2023-04-11T17:16:36.364Z,2.22
2023-04-11T17:19:04.741Z,1.27
2023-04-11T17:21:33.186Z,5.25
2023-04-11T17:24:02.521Z,2.10
2023-04-11T17:26:30.440Z,3.60
2023-04-11T17:28:58.439Z,2.33
2023-04-11T17:31:28.018Z,2.72
2023-04-11T17:33:56.567Z,4.18
2023-04-11T17:36:25.022Z,2.53
2023-04-11T17:38:54.717Z,3.17
2023-04-11T17:41:23.983Z,2.22
2023-04-11T17:43:51.923Z,3.33
2023-04-11T17:46:20.436Z,3.47
2023-04-11T17:48:48.442Z,1.77
2023-04-11T17:51:16.376Z,3.10
2023-04-11T17:53:44.266Z,7.40
2023-04-11T17:56:12.581Z,2.22
2023-04-11T17:58:44.881Z,7.72
2023-04-11T18:01:12.955Z,3.28
2023-04-11T18:03:41.227Z,2.50
2023-04-11T18:06:09.971Z,1.42
2023-04-11T18:08:50.646Z,3.97
2023-04-11T18:11:19.983Z,2.95
2023-04-11T18:13:50.498Z,3.92
2023-04-11T18:16:22.407Z,7.72
2023-04-11T18:18:50.487Z,5.28
2023-04-11T18:21:18.556Z,4.05
2023-04-11T18:23:46.492Z,1.75
2023-04-11T18:26:15.713Z,1.35
2023-04-11T18:28:43.717Z,2.67
2023-04-11T18:31:13.558Z,5.38
2023-04-11T18:33:45.695Z,5.72
2023-04-11T18:36:27.304Z,2.00
2023-04-11T18:38:55.935Z,6.55
2023-04-11T18:41:25.035Z,5.13
2023-04-11T18:43:53.020Z,2.17
2023-04-11T18:46:22.616Z,3.58
2023-04-11T18:48:50.549Z,2.97
2023-04-11T18:51:18.474Z,3.80
2023-04-11T18:53:46.395Z,3.55
2023-04-11T18:56:14.410Z,3.10
2023-04-11T18:58:45.438Z,3.22
2023-04-11T19:01:16.799Z,5.00
2023-04-11T19:03:47.065Z,3.38
2023-04-11T19:06:16.996Z,4.13
2023-04-11T19:08:44.904Z,1.88
2023-04-11T19:11:12.930Z,3.92
2023-04-11T19:13:41.030Z,2.85
2023-04-11T19:16:09.160Z,1.45
2023-04-11T19:18:37.510Z,2.67
2023-04-11T19:21:07.587Z,1.67
2023-04-11T19:23:36.106Z,3.63
2023-04-11T19:26:05.089Z,3.60
2023-04-11T19:28:33.362Z,3.22
2023-04-11T19:31:01.348Z,3.60
2023-04-11T19:33:29.401Z,3.45
2023-04-11T19:35:57.654Z,4.78
2023-04-11T19:38:27.116Z,2.88
2023-04-11T19:40:55.746Z,2.83
2023-04-11T19:43:23.673Z,4.15
2023-04-11T19:45:51.949Z,2.28
2023-04-11T19:48:20.144Z,2.05
2023-04-11T19:50:48.419Z,4.25
2023-04-11T19:53:16.462Z,4.63
2023-04-11T19:55:46.484Z,1.45
2023-04-11T19:58:14.523Z,4.95
2023-04-11T20:00:42.513Z,4.28
2023-04-11T20:03:14.527Z,6.82
2023-04-11T20:05:42.744Z,3.58
2023-04-11T20:08:10.778Z,6.20
2023-04-11T20:10:39.221Z,7.93
2023-04-11T20:13:08.928Z,2.35
2023-04-11T20:15:36.939Z,3.60
2023-04-11T20:18:05.673Z,3.38
2023-04-11T20:20:36.853Z,3.63
2023-04-11T20:23:06.117Z,2.90
2023-04-11T20:25:34.878Z,7.90
2023-04-11T20:28:03.406Z,3.42
2023-04-11T20:30:33.222Z,6.35
2023-04-11T20:33:01.668Z,2.00
2023-04-11T20:35:29.741Z,5.60
2023-04-11T20:37:58.359Z,5.03
2023-04-11T20:40:26.430Z,3.40
2023-04-11T20:42:56.345Z,2.08
2023-04-11T20:45:25.781Z,2.38
2023-04-11T20:47:55.496Z,4.00
2023-04-11T20:50:23.590Z,2.90
2023-04-11T20:52:52.617Z,5.18
2023-04-11T20:55:21.765Z,4.40
2023-04-11T20:57:49.671Z,2.15
2023-04-11T21:00:18.695Z,2.88
2023-04-11T21:02:49.803Z,4.05
2023-04-11T21:05:20.806Z,6.53
2023-04-11T21:07:48.817Z,6.50
2023-04-11T21:10:16.846Z,4.28
2023-04-11T21:12:51.230Z,4.32
2023-04-11T21:15:19.916Z,6.55
2023-04-11T21:17:48.833Z,9.40
2023-04-11T21:20:20.276Z,5.65
2023-04-11T21:22:52.779Z,4.10
2023-04-11T21:25:21.209Z,3.60
2023-04-11T21:27:49.868Z,5.22
2023-04-11T21:30:17.862Z,6.25
2023-04-11T21:32:45.825Z,4.18
2023-04-11T21:35:13.931Z,1.95
2023-04-11T21:37:41.899Z,4.05
2023-04-11T21:40:12.693Z,2.85
2023-04-11T21:42:40.989Z,4.30
2023-04-11T21:45:10.017Z,6.65
2023-04-11T21:47:37.987Z,5.50
2023-04-11T21:50:06.970Z,6.88
2023-04-11T21:52:34.964Z,3.60
2023-04-11T21:55:03.023Z,5.30
2023-04-11T21:57:34.731Z,6.30
2023-04-11T22:00:04.138Z,9.18
2023-04-11T22:02:39.965Z,3.03
2023-04-11T22:05:09.874Z,3.58
2023-04-11T22:07:47.265Z,6.68
2023-04-11T22:10:15.769Z,5.60
2023-04-11T22:12:46.930Z,6.95
2023-04-11T22:15:18.206Z,3.33
2023-04-11T22:17:50.401Z,6.80
2023-04-11T22:20:20.031Z,3.70
2023-04-11T22:22:48.024Z,6.93
2023-04-11T22:25:18.444Z,6.03
2023-04-11T22:27:48.039Z,3.63
2023-04-11T22:30:17.070Z,9.80
2023-04-11T22:32:45.137Z,7.88
2023-04-11T22:35:13.675Z,4.18
2023-04-11T22:37:42.028Z,8.25
2023-04-11T22:40:13.754Z,8.32
2023-04-11T22:42:42.222Z,12.07
2023-04-11T22:45:12.637Z,9.93
2023-04-11T22:47:45.751Z,5.47
2023-04-11T22:52:42.317Z,10.52
2023-04-11T22:55:11.863Z,7.07
2023-04-11T22:57:40.993Z,6.30
2023-04-11T23:00:12.249Z,7.85
2023-04-11T23:02:40.424Z,7.55
2023-04-11T23:05:09.696Z,9.98
2023-04-11T23:07:37.597Z,7.53
2023-04-11T23:10:06.486Z,9.30
2023-04-11T23:12:34.357Z,12.25
2023-04-11T23:15:02.514Z,5.90
2023-04-11T23:17:31.900Z,6.38
2023-04-11T23:20:06.337Z,11.15
2023-04-11T23:22:34.213Z,8.52
2023-04-11T23:25:02.068Z,9.18
2023-04-11T23:27:29.966Z,8.80
2023-04-11T23:29:58.818Z,9.18
2023-04-11T23:32:26.886Z,11.30
2023-04-11T23:34:56.178Z,6.45
2023-04-11T23:37:25.211Z,5.85
2023-04-11T23:39:53.231Z,12.27
2023-04-11T23:42:21.227Z,8.05
2023-04-11T23:44:49.172Z,11.80
2023-04-11T23:47:17.004Z,16.30
2023-04-11T23:49:45.252Z,9.80
2023-04-11T23:52:14.720Z,12.85
2023-04-11T23:54:43.553Z,12.32
2023-04-11T23:57:11.860Z,11.90
2023-04-11T23:59:39.872Z,15.43
